Latest Weather Observations for Hartz Mountains

IDT60801

Issued at 9:32 pm EDT Monday 27 March 2017 (issued every 30 minutes, with the page automatically refreshed every 10 minutes)

About weather observations | Map of weather stations | Latest weather observations for TAS | Other Formats
Station Details ID: 094191 Name: HARTZ MOUNTAIN (KEOGHS PIMPLE) Lat: -43.20 Lon: 146.77 Height: 831.0 m
Data from the previous 72 hours. | See also: Recent months at Hartz Mountains
Date/Time
EDT
Temp
°C
App
Temp
°C
Dew
Point
°C
Rel
Hum
%
Delta-T
°C
Wind Press
QNH
hPa
Press
MSL
hPa
Rain since
9am
mm
Dir  Spd
km/h
Gust
km/h
Spd
kts
Gust
kts
27/09:30pm 8.1 -4.2 6.9 92 0.6 WNW 61 87 33 47 - - 6.4
27/09:00pm 8.1 -4.2 7.0 93 0.5 WNW 61 100 33 54 - - 6.2
27/08:30pm 7.8 -2.8 7.1 95 0.3 WNW 52 87 28 47 - - 6.2
27/08:00pm 7.8 -2.0 7.2 96 0.3 WNW 48 76 26 41 - - 6.2
27/07:47pm 7.6 -0.9 7.0 96 0.3 WNW 41 83 22 45 - - 6.0
27/07:45pm 7.6 -1.3 6.9 95 0.3 WNW 43 83 23 45 - - 6.0
27/07:30pm 7.5 -3.9 6.8 95 0.3 WNW 56 89 30 48 - - 6.0
27/07:20pm 7.8 -2.4 7.1 95 0.3 WNW 50 83 27 45 - - 6.0
27/07:00pm 8.3 -0.5 7.2 93 0.5 WNW 43 65 23 35 - - 5.0
27/06:36pm 8.3 -0.5 7.2 93 0.5 WNW 43 83 23 45 - - 5.0
27/06:30pm 8.2 -0.2 7.4 95 0.4 WNW 41 59 22 32 - - 5.0
27/06:00pm 8.5 -0.3 7.1 91 0.7 WNW 43 65 23 35 - - 5.0
27/05:30pm 8.4 1.8 7.6 95 0.4 WNW 32 52 17 28 - - 5.0
27/05:00pm 7.9 -3.0 7.1 95 0.4 W 54 80 29 43 - - 5.0
27/04:51pm 7.6 -2.2 6.9 95 0.3 WNW 48 80 26 43 - - 5.0
27/04:30pm 7.2 0.1 6.6 96 0.3 WNW 33 63 18 34 - - 5.0
27/04:07pm 7.3 -3.3 6.7 96 0.3 WNW 52 93 28 50 - - 4.8
27/04:00pm 7.3 -5.5 6.6 95 0.3 WNW 63 100 34 54 - - 4.8
27/03:30pm 9.4 -2.0 8.9 97 0.3 WNW 59 96 32 52 - - 3.8
27/03:00pm 10.9 1.1 10.1 95 0.4 W 52 98 28 53 - - 3.0
27/02:57pm 10.8 1.7 10.0 95 0.4 W 48 98 26 53 - - 3.0
27/02:51pm 11.6 3.6 11.0 96 0.3 W 44 87 24 47 - - 2.8
27/02:48pm 11.7 2.9 11.1 96 0.3 W 48 87 26 47 - - 2.6
27/02:46pm 11.8 2.6 11.0 95 0.4 W 50 87 27 47 - - 2.6
27/02:30pm 11.9 -0.1 11.0 94 0.5 WNW 65 91 35 49 - - 2.6
27/02:02pm 14.5 7.7 13.2 92 0.7 WNW 41 87 22 47 - - 2.2
27/02:01pm 14.8 8.6 13.7 93 0.6 WNW 39 87 21 47 - - 2.0
27/02:00pm 15.3 9.6 14.3 94 0.6 WNW 37 69 20 37 - - 2.0
27/01:57pm 15.5 9.5 14.4 93 0.7 WNW 39 61 21 33 - - 1.0
27/01:30pm 17.4 12.6 13.9 80 2.1 NNW 32 56 17 30 - - 0.0
27/01:00pm 18.0 13.7 13.3 74 2.8 NNW 28 61 15 33 - - 0.0
27/12:34pm 18.1 13.8 13.2 73 2.9 NNW 28 63 15 34 - - 0.0
27/12:30pm 18.0 13.7 13.1 73 2.9 NNW 28 39 15 21 - - 0.0
27/12:00pm 18.1 12.8 13.2 73 2.9 NNW 33 54 18 29 - - 0.0
27/11:34am 17.8 12.6 13.3 75 2.6 NNW 33 54 18 29 - - 0.0
27/11:30am 17.3 13.0 13.2 77 2.4 NNW 28 39 15 21 - - 0.0
27/11:16am 17.0 12.7 13.3 79 2.2 NNW 28 48 15 26 - - 0.0
27/11:00am 16.6 13.7 12.9 79 2.1 N 20 32 11 17 - - 0.0
27/10:30am 16.4 13.2 13.1 81 1.9 NNW 22 37 12 20 - - 0.0
27/10:00am 15.6 12.6 12.5 82 1.8 NNW 20 32 11 17 - - 0.0
27/09:30am 15.9 13.8 12.3 79 2.1 NNW 15 28 8 15 - - 0.0
27/09:00am 16.4 14.1 13.1 81 1.9 NW 17 24 9 13 - - 0.0
27/08:30am 15.2 10.9 12.2 82 1.7 NW 26 35 14 19 - - 0.0
27/08:22am 14.9 9.8 11.9 82 1.7 NNW 30 48 16 26 - - 0.0
27/08:00am 14.9 8.8 11.7 81 1.8 NNW 35 48 19 26 - - 0.0
27/07:30am 14.1 8.4 11.1 82 1.7 NNW 32 50 17 27 - - 0.0
27/07:03am 13.9 8.1 10.9 82 1.7 NNW 32 52 17 28 - - 0.0
27/07:00am 13.6 7.8 10.8 83 1.5 NNW 32 43 17 23 - - 0.0
27/06:30am 12.8 6.9 10.3 85 1.4 NW 32 46 17 25 - - 0.0
27/06:00am 12.4 7.5 10.1 86 1.2 NNW 26 39 14 21 - - 0.0
27/05:30am 11.6 8.0 9.9 89 0.9 NW 19 24 10 13 - - 0.0
27/05:00am 11.8 7.0 10.4 91 0.8 N 26 35 14 19 - - 0.0
27/04:30am 11.7 7.3 10.3 91 0.8 N 24 37 13 20 - - 0.0
27/04:00am 11.3 9.3 10.2 93 0.6 N 11 17 6 9 - - 0.0
27/03:30am 11.5 8.4 10.4 93 0.6 N 17 24 9 13 - - 0.0
27/03:00am 11.5 8.5 10.6 94 0.5 N 17 24 9 13 - - 0.0
27/02:30am 11.8 8.2 10.7 93 0.6 N 20 33 11 18 - - 0.0
27/02:00am 12.1 8.6 10.8 92 0.7 N 20 32 11 17 - - 0.0
27/01:30am 12.4 7.4 11.0 91 0.8 N 28 43 15 23 - - 0.0
27/01:11am 12.2 7.3 11.3 94 0.5 N 28 46 15 25 - - 0.0
27/01:00am 11.7 8.7 10.8 94 0.5 NNW 17 28 9 15 - - 0.0
27/12:30am 11.9 8.1 11.0 94 0.5 N 22 35 12 19 - - 0.0
27/12:00am 11.9 10.5 11.0 94 0.5 NNW 9 15 5 8 - - 0.0
 
Date/Time
EDT
Temp
°C
App
Temp
°C
Dew
Point
°C
Rel
Hum
%
Delta-T
°C
Wind Press
QNH
hPa
Press
MSL
hPa
Rain since
9am
mm
Dir  Spd
km/h
Gust
km/h
Spd
kts
Gust
kts
26/11:30pm 11.8 9.6 10.9 94 0.5 N 13 22 7 12 - - 0.0
26/11:00pm 11.9 9.8 11.1 95 0.4 NNE 13 17 7 9 - - 0.0
26/10:30pm 11.8 11.0 11.0 95 0.4 NE 6 11 3 6 - - 0.0
26/10:00pm 11.7 10.0 11.1 96 0.3 NE 11 15 6 8 - - 0.0
26/09:30pm 11.6 10.2 10.8 95 0.4 E 9 13 5 7 - - 0.0
26/09:00pm 11.8 10.0 11.0 95 0.4 ENE 11 17 6 9 - - 0.0
26/08:30pm 11.9 10.2 11.1 95 0.4 ENE 11 15 6 8 - - 0.0
26/08:00pm 12.0 10.3 11.1 94 0.5 E 11 15 6 8 - - 0.0
26/07:30pm 12.4 10.7 11.3 93 0.6 E 11 13 6 7 - - 0.0
26/07:00pm 12.8 11.2 11.4 91 0.8 SE 11 13 6 7 - - 0.0
26/06:30pm 14.0 12.6 12.2 89 1.0 SE 11 13 6 7 - - 0.0
26/06:00pm 14.7 13.4 12.4 86 1.3 ESE 11 15 6 8 - - 0.0
26/05:30pm 15.7 14.2 13.2 85 1.4 ESE 13 19 7 10 - - 0.0
26/05:00pm 15.2 13.5 12.5 84 1.5 ESE 13 19 7 10 - - 0.0
26/04:30pm 15.7 14.1 12.8 83 1.7 ESE 13 17 7 9 - - 0.0
26/04:00pm 16.1 14.8 12.5 79 2.1 E 11 15 6 8 - - 0.0
26/03:30pm 17.2 16.3 12.7 75 2.6 NE 9 13 5 7 - - 0.0
26/03:00pm 17.1 16.6 12.8 76 2.5 NNE 7 11 4 6 - - 0.0
26/02:30pm 17.7 17.0 13.2 75 2.6 NNE 9 15 5 8 - - 0.0
26/02:00pm 17.0 16.3 13.3 79 2.2 NE 9 13 5 7 - - 0.0
26/01:30pm 16.3 15.2 11.9 75 2.5 NNE 9 15 5 8 - - 0.0
26/01:00pm 16.8 16.3 12.1 74 2.7 NE 6 11 3 6 - - 0.0
26/12:30pm 16.3 16.1 11.9 75 2.5 N 4 11 2 6 - - 0.0
26/12:00pm 16.4 15.9 12.0 75 2.5 N 6 11 3 6 - - 0.0
26/11:30am 15.2 13.4 10.8 75 2.4 WNW 11 17 6 9 - - 0.0
26/11:00am 15.3 14.2 12.1 81 1.8 WNW 9 15 5 8 - - 0.0
26/10:30am 14.9 13.9 12.4 85 1.4 NW 9 15 5 8 - - 0.0
26/10:00am 14.0 12.2 12.0 88 1.1 W 13 20 7 11 - - 0.0
26/09:30am 13.7 13.1 12.4 92 0.7 W 7 15 4 8 - - 0.0
26/09:00am 12.3 9.6 11.8 97 0.3 W 17 28 9 15 - - 0.4
26/08:30am 11.8 7.7 11.3 97 0.3 W 24 35 13 19 - - 0.4
26/08:00am 11.7 8.5 11.2 97 0.3 W 19 32 10 17 - - 0.4
26/07:30am 11.6 8.7 11.1 97 0.3 W 17 24 9 13 - - 0.4
26/07:00am 11.5 9.3 10.9 96 0.3 WNW 13 19 7 10 - - 0.4
26/06:30am 11.6 9.5 11.0 96 0.3 WNW 13 15 7 8 - - 0.4
26/06:00am 11.7 9.5 10.9 95 0.4 W 13 19 7 10 - - 0.4
26/05:30am 11.5 9.2 10.6 94 0.5 W 13 17 7 9 - - 0.4
26/05:00am 11.4 8.7 10.5 94 0.5 W 15 20 8 11 - - 0.4
26/04:30am 11.2 8.1 10.3 94 0.5 W 17 22 9 12 - - 0.4
26/04:00am 11.4 7.8 10.5 94 0.5 W 20 26 11 14 - - 0.4
26/03:30am 11.7 8.3 10.6 93 0.6 W 19 28 10 15 - - 0.4
26/03:00am 12.0 8.1 10.9 93 0.6 W 22 26 12 14 - - 0.4
26/02:30am 11.8 7.5 10.7 93 0.6 W 24 26 13 14 - - 0.4
26/02:00am 12.0 6.9 10.7 92 0.7 W 28 32 15 17 - - 0.4
26/01:30am 12.1 7.7 10.5 90 0.9 W 24 28 13 15 - - 0.4
26/01:00am 11.7 8.2 10.3 91 0.8 W 19 22 10 12 - - 0.4
26/12:30am 11.8 7.3 10.2 90 0.9 W 24 30 13 16 - - 0.4
26/12:00am 11.7 9.9 9.6 87 1.1 W 9 15 5 8 - - 0.4
 
Date/Time
EDT
Temp
°C
App
Temp
°C
Dew
Point
°C
Rel
Hum
%
Delta-T
°C
Wind Press
QNH
hPa
Press
MSL
hPa
Rain since
9am
mm
Dir  Spd
km/h
Gust
km/h
Spd
kts
Gust
kts
25/11:30pm 11.8 10.1 9.7 87 1.1 WNW 9 11 5 6 - - 0.4
25/11:00pm 11.7 9.6 9.6 87 1.1 WNW 11 13 6 7 - - 0.4
25/10:30pm 11.6 9.0 9.5 87 1.1 NW 13 13 7 7 - - 0.4
25/10:00pm 11.6 10.2 9.7 88 1.0 NW 7 9 4 5 - - 0.4
25/09:30pm 11.6 10.2 9.7 88 1.0 NNW 7 9 4 5 - - 0.4
25/09:00pm 11.5 11.4 9.6 88 1.0 CALM 0 0 0 0 - - 0.4
25/08:30pm 11.8 11.8 9.7 87 1.1 CALM 0 0 0 0 - - 0.4
25/08:00pm 11.8 11.8 9.7 87 1.1 CALM 0 0 0 0 - - 0.4
25/07:30pm 12.0 10.6 9.7 86 1.2 NNE 7 7 4 4 - - 0.4
25/07:00pm 12.7 11.3 9.7 82 1.6 N 7 9 4 5 - - 0.4
25/06:30pm 13.2 12.0 10.4 83 1.5 ENE 7 7 4 4 - - 0.4
25/06:00pm 14.3 14.0 10.1 76 2.3 WNW 2 7 1 4 - - 0.4
25/05:30pm 14.2 12.2 10.0 76 2.3 WNW 11 15 6 8 - - 0.4
25/05:00pm 15.2 13.3 10.4 73 2.6 WNW 11 17 6 9 - - 0.4
25/04:30pm 15.9 14.5 10.9 72 2.8 W 9 13 5 7 - - 0.4
25/04:00pm 17.0 14.9 9.9 63 3.9 W 11 15 6 8 - - 0.4
25/03:30pm 16.1 14.2 10.6 70 3.0 NW 11 19 6 10 - - 0.4
25/03:00pm 15.7 14.6 10.7 72 2.8 N 7 9 4 5 - - 0.4
25/02:30pm 16.1 14.9 10.2 68 3.2 NNE 7 13 4 7 - - 0.4
25/02:00pm 15.4 14.0 9.7 69 3.1 N 7 11 4 6 - - 0.4
25/01:30pm 13.7 11.6 8.3 70 2.8 N 9 13 5 7 - - 0.4
25/01:00pm 13.2 11.8 9.5 78 2.0 NNE 7 9 4 5 - - 0.4
25/12:30pm 12.6 11.2 7.1 69 2.8 N 4 9 2 5 - - 0.4
25/12:00pm 12.4 11.5 9.4 82 1.6 NNE 4 9 2 5 - - 0.4
25/11:30am 11.5 11.2 8.7 83 1.5 CALM 0 0 0 0 - - 0.2
25/11:00am 10.8 10.6 9.1 89 0.9 CALM 0 0 0 0 - - 0.0
25/10:30am 10.0 8.9 8.3 89 0.9 W 4 7 2 4 - - 0.0
25/10:00am 9.7 7.9 7.8 88 1.0 W 7 9 4 5 - - 0.0
25/09:30am 9.8 9.2 7.4 85 1.2 CALM 0 0 0 0 - - 0.0
25/09:00am 9.7 7.6 6.8 82 1.4 ESE 7 9 4 5 - - 0.0
25/08:30am 9.6 7.1 6.7 82 1.4 SSW 9 15 5 8 - - 0.0
25/08:00am 8.3 5.5 6.9 91 0.7 WNW 11 15 6 8 - - 0.0
25/07:30am 7.9 4.0 7.0 94 0.4 NW 17 20 9 11 - - 0.0
25/07:00am 8.3 4.7 6.9 91 0.7 WSW 15 20 8 11 - - 0.0
25/06:30am 8.2 3.9 7.0 92 0.6 NW 19 20 10 11 - - 0.0
25/06:00am 7.9 5.1 7.1 95 0.4 WNW 11 13 6 7 - - 0.0
25/05:30am 7.9 4.8 7.1 95 0.4 NW 13 17 7 9 - - 0.0
25/05:00am 7.8 4.7 7.2 96 0.3 NW 13 15 7 8 - - 0.0
25/04:30am 7.6 5.6 6.9 95 0.3 NW 7 9 4 5 - - 0.0
25/04:00am 7.8 5.4 7.1 95 0.3 N 9 13 5 7 - - 0.0
25/03:30am 7.9 5.5 7.0 94 0.4 NNW 9 11 5 6 - - 0.0
25/03:00am 8.1 6.1 7.2 94 0.4 N 7 13 4 7 - - 0.0
25/02:30am 8.3 5.9 7.2 93 0.5 NNW 9 13 5 7 - - 0.0
25/02:00am 8.4 6.0 7.2 92 0.6 N 9 13 5 7 - - 0.0
25/01:30am 8.6 6.2 7.2 91 0.7 N 9 13 5 7 - - 0.0
25/01:00am 8.5 6.5 7.1 91 0.7 NNW 7 13 4 7 - - 0.0
25/12:30am 8.6 6.2 7.1 90 0.7 N 9 13 5 7 - - 0.0
25/12:00am 8.8 6.0 7.1 89 0.8 N 11 17 6 9 - - 0.0
 
Date/Time
EDT
Temp
°C
App
Temp
°C
Dew
Point
°C
Rel
Hum
%
Delta-T
°C
Wind Press
QNH
hPa
Press
MSL
hPa
Rain since
9am
mm
Dir  Spd
km/h
Gust
km/h
Spd
kts
Gust
kts
24/11:30pm 8.8 6.0 7.1 89 0.8 NNE 11 13 6 7 - - 0.0
24/11:00pm 8.7 7.7 7.2 90 0.7 WSW 2 9 1 5 - - 0.0
24/10:30pm 8.2 6.7 7.0 92 0.6 N 4 7 2 4 - - 0.0
24/10:00pm 8.0 5.6 7.1 94 0.4 NE 9 13 5 7 - - 0.0

Other Formats:

Comma delimited format used in spreadsheet applications
http://www.bom.gov.au/fwo/IDT60801/IDT60801.94977.axf

JavaScript Object Notation format (JSON) in row-major order
http://www.bom.gov.au/fwo/IDT60801/IDT60801.94977.json